Aktualne dane pomiarowe

Uwaga, wersja testowa! Automatyczne pobieranie danych za pomocą narzędzi lub skryptów to umożliwiających jest zabronione.

Dane meteo z obszaru Polski uzyskane na podstawie depesz SYNOP pobieranych co godzinę z NWS. Najedź myszką na symbol przedstawiony w tabeli, aby uzyskać informacje co do jego znaczenia. Prosimy pamiętać, że to testowa wersja strony, która jeszcze nie jest ukończona. Stworzono również jest krótki FAQ dotyczący korzystania z tej podstrony Anomalie temperatury w chwili obecnej odniesione są do okresu referencyjnego 1951-2016. Okres ten będzie później zmieniony na 1981-2010. Kliknij ikonę aby pobrać plik CSV. Kliknij ikonę aby wygenerować mapę synoptyczną dla danego terminu.

Wybierz Datę:    

        

Wieluń (12455)

Dane terminowe dla wybranej stacji. Kliknij datę, aby otrzymać dane z tego terminu dla wszystkich stacji.

TemperaturaZachmurzenieWiatrCiśnienieOpadyPogoda
 Data t td wb tx tn tg rh  Nt Nl Cl Cm Ch ws wd g1 g2 wx mslp ppp ch 24h 12h t ww ww w1 w2  
2019-06-30 23:00:00 25.4 12.9 17.7--- 4640.0wx-3wx--31011.8 989.0 -0.3---------
2019-06-30 22:00:00 26.3 12.4 17.8--- 4240.0wx-4wx--41011.7 989.0 0.0---------
2019-06-30 21:00:00 26.7 12.0 17.8--- 4040.0wx-wx3wx-831011.9 989.2 0.4---------
2019-06-30 20:00:00 28.1 11.6 18.1--- 3640.0wx-wxwx3wx---1011.9 989.3 0.4---------
2019-06-30 19:00:00 29.9 10.4 18.3--- 3040.0wx-wxwx3wx-831011.4 989.0 -0.3---------
2019-06-30 18:00:00 32.3 9.8 18.9 36.1 23.6- 2535.0wx-wx3wx-931011.0 988.8 -1.0- 0.012------
2019-06-30 17:00:00 34.2 8.8 19.1--- 2135.0wx-wx4wx-841011.0 988.9 -1.6---------
2019-06-30 16:00:00 35.4 6.6 18.6--- 1745.0wx-wx3wx-831011.3 989.3 -2.1---------
2019-06-30 15:00:00 35.5 5.8 18.3--- 1630.0wx-3wx9931011.8 989.8 -2.2---------
2019-06-30 14:00:00 35.4 6.6 18.6--- 1735.0wx-4wx-841012.6 990.5 -2.1---------
2019-06-30 13:00:00 34.7 6.1 18.1--- 1730.0wx-4wx--41013.5 991.4 -1.8---------
2019-06-30 12:00:00 34.0 7.1 18.3--- 1940.0wx-3wx-831014.2 992.0 -1.8- 0.06------
2019-06-30 11:00:00 33.3 8.0 18.5--- 2128.0wx-3wx--31014.9 992.6 -1.5---------
2019-06-30 10:00:00 32.2 8.4 18.2--- 2330.0wx-3wx--31015.6 993.2 -1.1---------
2019-06-30 09:00:00 29.9 9.9 18.1--- 2935.0wx-4wx-841016.3 993.8 -0.7---------
2019-06-30 08:00:00 28.4 10.1 17.6--- 3235.0wx-4wx--41016.8 994.1 -0.4---------
2019-06-30 07:00:00 26.5 11.4 17.4--- 3930.0wx-3wx--31017.1 994.3 0.0---------
2019-06-30 06:00:00 23.6 12.3 16.7 26.6 17.2 14 4930.0wx-2wx--21017.5 994.5 0.4- 0.012----- 14.8
2019-06-30 05:00:00 21.1 12.8 15.9--- 5945.0wx-wx2wx--21017.7 994.5 0.4---------
2019-06-30 04:00:00 18.3 11.8 14.2--- 6630.0wx-wx1wx---1017.8 994.3 -0.2---------
2019-06-30 03:00:00 17.3 10.7 13.2--- 6545.0wx-1wx--11017.6 994.1 -0.7---------
2019-06-30 02:00:00 18.2 10.3 13.4--- 6045.0wx-2wx--21017.6 994.1 -0.9---------
2019-06-30 01:00:00 18.6 10.4 13.6--- 5940.0wx-2wx--21017.9 994.5 -0.6---------
2019-06-30 00:00:00 18.9 10.2 13.7--- 5740.0wx-2wx---1018.2 994.8 -0.3---------
2019-06-29 23:00:00 19.4 10.1 13.8--- 5545.0wx-2wx---1018.4 995.0 -0.3---------
2019-06-29 22:00:00 19.2 10.5 13.9--- 5735.0wx-2wx---1018.5 995.1 0.0---------
2019-06-29 21:00:00 18.9 10.5 13.8--- 5829.0wx-wx1wx---1018.5 995.1 0.4---------
2019-06-29 20:00:00 19.7 10.7 14.2--- 5630.0wx-wx1wx--11018.7 995.3 0.2---------
2019-06-29 19:00:00 22.7 9.8 15.1--- 4440.0wx-wx1wx--11018.2 995.1 -0.1---------
2019-06-29 18:00:00 26.6 9.0 16.4 28.4 19.5- 3340.0wx-wx3wx-931017.5 994.7 -0.6- 0.012------
2019-06-29 17:00:00 27.6 8.0 16.4--- 2945.0wx-wx3wx---1017.8 995.1 -1.0---------
2019-06-29 16:00:00 28.0 8.3 16.6--- 2935.0wx-wx4wx---1017.9 995.2 -1.0---------
2019-06-29 15:00:00 27.8 8.1 16.5--- 2930.0wx-wx4wx-941018.0 995.3 -1.5---------
2019-06-29 14:00:00 27.4 7.8 16.2--- 2935.0wx-wx4wx---1018.9 996.1 -1.3---------
2019-06-29 13:00:00 27.2 9.1 16.7--- 3235.0wx-wx4wx---1019.0 996.2 -1.4---------
2019-06-29 12:00:00 26.2 8.7 16.1--- 3335.0wxwxwxwx3wx-931019.7 996.8 -1.4- 0.06------
2019-06-29 11:00:00 25.0 8.0 15.3--- 3429.0wxwxwxwx5wx-951020.4 997.4 -1.0---------
2019-06-29 10:00:00 24.6 8.5 15.4--- 3630.0wxwxwxwx4wx--41020.6 997.6 -1.1---------
2019-06-29 09:00:00 23.3 8.6 14.9--- 3935.0wxwxwxwx3wx--31021.3 998.2 -0.2---------
2019-06-29 08:00:00 22.1 7.9 14.0--- 4035.0wx-wx3wx--31021.6 998.4 -0.5---------
2019-06-29 07:00:00 21.0 6.1 12.8--- 3830.0wx-wx3wx--31022.0 998.7 0.0---------
2019-06-29 06:00:00 19.6 6.3 12.3 22.0 10.8 9 4240.0wx-wx2wx--21021.8 998.4 -0.4- 0.012----- 3.3
2019-06-29 05:00:00 16.9 9.1 12.2--- 6040.0wx-wx1wx--11022.6 998.9 0.1---------
2019-06-29 04:00:00 12.5 8.8 10.1--- 7830.0wx-wx1wx--11022.7 998.7 0.0---------
2019-06-29 03:00:00 11.9 8.9 9.9--- 8235.0wx-wxwx1wx--11022.9 998.8 0.2---------
2019-06-29 02:00:00 12.1 9.3 10.3--- 8330.0wx-wx1wx--11022.9 998.8 0.3---------
2019-06-29 01:00:00 13.3 9.5 10.9--- 7840.0wx-1wx--11022.7 998.7 0.7---------
2019-06-29 00:00:00 15.8 9.2 11.8--- 6540.0wx-wx1wx--11022.4 998.6 0.8- 0.06------
1.5 ms

 

Print Friendly, PDF & Email